Hoboken, Belgium
Current Conditions -  °F | °C
As of 6:50 PM on Friday 21 Nov 2014 (Local Time) from EBAW Reporting Station
Broken Clouds Broken Clouds  
Wind Chill: 41°   Ceiling: 1500
Heat Index: 45°   Visibility: 5mi
Dew Point: 41°   Wind: 7mph
Humidity: 87%   Direction: 100°E
Pressure: 30.09"   Gusts: NA
Location:  51.18°N, 4.35°E
Report Text: EBAW 211750Z 10006KT 8000 BKN015 07/05 Q1019 NOSIG
Loading
Personal Weather Stations






























Interactive Weather Map New forecast layout! Learn more

10-Day Weather Forecast

Advertisements
Track Severe Weather on mobile